Time;durP1;ratioP1;P1;durP2;ratioP2;P2;SDS_P1;SDS_P2;PMS_P1;PMS_P2;Temp;Humidity;BMP_temperature;BMP_pressure;BME280_temperature;BME280_humidity;BME280_pressure;Samples;Min_cycle;Max_cycle;Signal;HPM_P1;HPM_P2
2023/01/17 00:00:04;;;;;;;85.72;44.55;;;3.40;99.90;;;;;;4963305;28;20210;-89
2023/01/17 00:13:08;;;;;;;66.57;40.97;;;3.20;99.90;;;;;;5164515;23;20221;-88
2023/01/17 00:15:51;;;;;;;70.30;47.40;;;3.20;99.90;;;;;;5140377;27;20568;-87
2023/01/17 00:18:18;;;;;;;60.28;41.58;;;3.20;99.90;;;;;;5113938;28;20193;-87
2023/01/17 00:26:31;;;;;;;74.50;42.63;;;3.00;99.90;;;;;;5223158;22;20248;-87
2023/01/17 01:33:51;;;;;;;58.80;38.88;;;2.80;99.90;;;;;;5060917;28;20217;-87
2023/01/17 01:36:18;;;;;;;61.67;37.47;;;2.70;99.90;;;;;;5066448;28;20205;-85
2023/01/17 01:38:49;;;;;;;56.50;38.05;;;2.50;99.90;;;;;;5053765;28;20198;-85
2023/01/17 01:41:19;;;;;;;59.08;38.85;;;2.70;99.90;;;;;;5062439;28;20209;-85
2023/01/17 01:43:54;;;;;;;62.38;41.92;;;2.60;99.90;;;;;;5062341;28;20198;-85
2023/01/17 01:46:36;;;;;;;55.42;34.05;;;2.60;99.90;;;;;;5063107;28;20210;-87
2023/01/17 01:49:24;;;;;;;52.80;32.78;;;2.40;99.90;;;;;;5062336;28;20206;-87
2023/01/17 01:51:56;;;;;;;49.15;29.52;;;2.40;99.90;;;;;;5062464;28;20207;-86
2023/01/17 01:54:27;;;;;;;46.35;29.35;;;2.30;99.90;;;;;;5045353;28;20448;-86
2023/01/17 01:57:00;;;;;;;39.30;27.80;;;2.40;99.90;;;;;;5062100;28;20199;-87
2023/01/17 01:59:32;;;;;;;38.67;24.85;;;2.40;99.90;;;;;;5063590;28;20229;-86
2023/01/17 02:01:59;;;;;;;31.75;24.38;;;2.40;99.90;;;;;;5077481;28;20216;-88
2023/01/17 02:04:33;;;;;;;23.27;15.93;;;2.40;99.90;;;;;;5077827;28;20269;-87
2023/01/17 02:07:11;;;;;;;13.90;11.40;;;2.40;99.90;;;;;;5054454;28;20216;-87
2023/01/17 02:09:39;;;;;;;16.30;12.95;;;2.40;99.90;;;;;;5052616;28;20328;-86
2023/01/17 02:12:08;;;;;;;14.65;10.65;;;2.40;99.90;;;;;;5061947;28;20643;-85
2023/01/17 02:14:35;;;;;;;16.77;11.35;;;2.40;99.90;;;;;;5054659;28;20525;-85
2023/01/17 02:17:53;;;;;;;15.23;11.00;;;2.50;99.90;;;;;;5060968;28;20295;-84
2023/01/17 02:20:41;;;;;;;12.50;8.98;;;2.50;99.90;;;;;;5023819;28;20267;-82
2023/01/17 02:23:33;;;;;;;16.95;11.02;;;2.40;99.90;;;;;;5056370;28;20259;-84
2023/01/17 02:26:29;;;;;;;12.82;9.07;;;2.40;99.90;;;;;;5063862;28;20210;-87
2023/01/17 02:29:20;;;;;;;13.00;8.48;;;2.40;99.90;;;;;;5057978;28;20202;-87
2023/01/17 02:31:54;;;;;;;9.68;8.27;;;2.50;99.90;;;;;;5039564;28;20226;-88
2023/01/17 02:34:44;;;;;;;11.43;8.18;;;2.50;99.90;;;;;;5044120;28;20760;-88
2023/01/17 02:37:24;;;;;;;9.57;6.95;;;2.50;99.90;;;;;;5042512;28;20214;-88
2023/01/17 02:40:12;;;;;;;8.35;7.55;;;2.40;99.90;;;;;;5059959;28;20200;-90
2023/01/17 02:42:50;;;;;;;10.48;9.27;;;2.40;99.90;;;;;;5044343;28;20261;-89
2023/01/17 02:45:20;;;;;;;8.85;7.32;;;2.30;99.90;;;;;;5059996;28;20274;-89
2023/01/17 02:47:48;;;;;;;7.90;6.80;;;2.30;99.90;;;;;;5044965;28;20620;-85
2023/01/17 02:50:36;;;;;;;7.95;5.95;;;2.30;99.90;;;;;;5058030;28;20213;-87
2023/01/17 02:53:26;;;;;;;11.73;8.05;;;2.30;99.90;;;;;;5054787;28;20232;-85
2023/01/17 02:56:09;;;;;;;6.97;5.95;;;2.50;99.90;;;;;;5047084;28;20229;-86
2023/01/17 02:58:57;;;;;;;11.88;6.90;;;2.50;99.90;;;;;;5035262;28;20200;-87
2023/01/17 03:01:52;;;;;;;12.15;6.45;;;2.30;99.90;;;;;;5061539;28;20194;-89
2023/01/17 03:04:33;;;;;;;6.90;6.20;;;2.40;99.90;;;;;;5008017;28;20220;-89
2023/01/17 03:07:04;;;;;;;10.27;7.47;;;2.60;99.90;;;;;;5056684;28;20228;-88
2023/01/17 03:09:32;;;;;;;9.57;7.70;;;2.90;99.90;;;;;;5028574;28;20268;-91
2023/01/17 03:12:03;;;;;;;9.30;6.97;;;3.00;99.90;;;;;;5054672;28;20545;-88
2023/01/17 03:14:30;;;;;;;5.88;5.28;;;3.00;99.90;;;;;;5066952;28;20226;-90
2023/01/17 03:16:59;;;;;;;7.55;5.50;;;3.20;99.90;;;;;;5068995;28;20218;-88
2023/01/17 03:19:26;;;;;;;7.43;6.57;;;3.40;99.90;;;;;;5038716;28;20214;-90
2023/01/17 03:21:54;;;;;;;7.32;5.82;;;3.40;99.90;;;;;;5057710;28;20269;-88
2023/01/17 03:24:22;;;;;;;7.47;6.22;;;3.50;99.90;;;;;;5061700;28;20211;-85
2023/01/17 03:26:51;;;;;;;6.70;6.00;;;3.60;99.90;;;;;;5060598;28;20207;-90
2023/01/17 03:29:19;;;;;;;9.68;5.85;;;3.40;99.90;;;;;;5048930;28;20238;-89
2023/01/17 03:31:47;;;;;;;9.57;5.95;;;3.30;99.90;;;;;;5060685;28;20250;-86
2023/01/17 03:34:15;;;;;;;6.50;4.43;;;3.40;99.90;;;;;;5042510;28;20215;-85
2023/01/17 03:36:42;;;;;;;5.80;4.30;;;3.30;99.90;;;;;;5051891;28;20273;-86
2023/01/17 03:39:10;;;;;;;7.88;5.25;;;3.20;99.90;;;;;;5047896;28;20206;-85
2023/01/17 03:41:40;;;;;;;6.35;5.32;;;3.10;99.90;;;;;;5044399;28;20241;-86
2023/01/17 03:44:07;;;;;;;5.45;4.60;;;3.00;99.90;;;;;;5039316;28;20198;-84
2023/01/17 03:46:35;;;;;;;4.82;4.18;;;2.90;99.90;;;;;;5068202;28;20406;-87
2023/01/17 03:49:05;;;;;;;5.25;4.20;;;2.80;99.90;;;;;;5048308;28;20248;-85
2023/01/17 03:51:32;;;;;;;6.43;5.00;;;2.80;99.90;;;;;;5060013;28;20227;-87
2023/01/17 03:53:59;;;;;;;6.65;5.20;;;2.70;99.90;;;;;;5039499;28;20329;-85
2023/01/17 03:56:31;;;;;;;5.35;4.85;;;2.80;99.90;;;;;;5060734;28;20490;-90
2023/01/17 03:58:58;;;;;;;8.45;4.78;;;2.90;99.90;;;;;;5067168;28;20249;-86
2023/01/17 04:01:33;;;;;;;7.68;6.22;;;2.90;99.90;;;;;;5071475;28;20218;-92
2023/01/17 04:04:01;;;;;;;7.88;4.80;;;2.80;99.90;;;;;;5064413;28;20257;-85
2023/01/17 04:06:28;;;;;;;10.18;6.80;;;2.80;99.90;;;;;;5083272;22;20309;-86
2023/01/17 04:08:55;;;;;;;8.18;5.60;;;2.80;99.90;;;;;;5066175;28;20205;-88
2023/01/17 04:11:23;;;;;;;7.88;6.20;;;2.70;99.90;;;;;;5066752;28;20208;-87
2023/01/17 04:13:50;;;;;;;9.77;6.32;;;2.60;99.90;;;;;;5044339;28;20212;-85
2023/01/17 04:16:20;;;;;;;8.40;6.57;;;2.70;99.90;;;;;;5050638;28;20232;-88
2023/01/17 04:18:47;;;;;;;8.88;7.60;;;2.70;99.90;;;;;;5064075;28;20230;-85
2023/01/17 04:21:15;;;;;;;11.55;8.07;;;2.80;99.90;;;;;;5080112;28;20232;-88
2023/01/17 04:23:41;;;;;;;8.82;6.72;;;2.80;99.90;;;;;;5064863;28;20202;-89
2023/01/17 04:26:11;;;;;;;13.77;9.05;;;2.70;99.90;;;;;;5049529;28;20214;-85
2023/01/17 04:28:38;;;;;;;16.45;10.60;;;2.60;99.90;;;;;;5049384;28;20258;-88
2023/01/17 04:31:06;;;;;;;15.07;9.90;;;2.60;99.90;;;;;;5061574;28;20275;-88
2023/01/17 04:33:33;;;;;;;18.25;10.20;;;2.60;99.90;;;;;;5052428;28;20210;-88
2023/01/17 04:36:03;;;;;;;16.33;9.43;;;2.50;99.90;;;;;;5068091;28;20245;-90
2023/01/17 04:38:29;;;;;;;11.88;10.27;;;2.50;99.90;;;;;;5043521;28;20209;-90
2023/01/17 04:40:57;;;;;;;14.02;10.45;;;2.40;99.90;;;;;;5043463;28;20221;-87
2023/01/17 04:43:25;;;;;;;15.82;11.15;;;2.40;99.90;;;;;;5066050;28;20205;-88
2023/01/17 04:45:56;;;;;;;13.88;8.98;;;2.40;99.90;;;;;;5063829;28;20288;-86
2023/01/17 04:48:25;;;;;;;14.95;9.52;;;2.30;99.90;;;;;;5061768;28;20240;-84
2023/01/17 04:50:59;;;;;;;12.88;8.77;;;2.30;99.90;;;;;;5045701;28;20494;-87
2023/01/17 04:53:29;;;;;;;14.35;9.80;;;2.20;99.90;;;;;;5044942;28;20206;-83
2023/01/17 04:55:56;;;;;;;11.82;8.80;;;2.10;99.90;;;;;;5063017;28;20291;-84
2023/01/17 04:58:26;;;;;;;25.23;12.73;;;2.00;99.90;;;;;;5046901;28;20208;-85
2023/01/17 05:00:53;;;;;;;13.98;9.68;;;2.00;99.90;;;;;;5059153;28;20262;-85
2023/01/17 05:03:22;;;;;;;8.10;6.47;;;2.20;99.90;;;;;;5065216;28;20268;-86
2023/01/17 05:05:49;;;;;;;10.70;7.10;;;2.00;99.90;;;;;;5066390;28;20290;-86
2023/01/17 05:08:16;;;;;;;10.15;6.38;;;2.00;99.90;;;;;;5054939;28;20277;-85
2023/01/17 05:10:45;;;;;;;6.45;5.20;;;2.10;99.90;;;;;;5067347;28;20250;-83
2023/01/17 05:13:13;;;;;;;14.60;6.78;;;2.10;99.90;;;;;;5069493;28;20212;-82
2023/01/17 05:15:40;;;;;;;8.70;6.35;;;2.10;99.90;;;;;;5080237;28;20216;-85
2023/01/17 05:18:12;;;;;;;9.88;5.90;;;2.00;99.90;;;;;;5070892;28;20202;-83
2023/01/17 05:20:40;;;;;;;6.45;5.03;;;2.10;99.90;;;;;;5073324;28;20208;-85
2023/01/17 05:23:09;;;;;;;7.22;4.65;;;2.00;99.90;;;;;;5072184;28;20226;-87
2023/01/17 05:25:43;;;;;;;5.57;4.95;;;2.00;99.90;;;;;;5052488;28;20223;-84
2023/01/17 05:28:13;;;;;;;7.68;5.30;;;2.10;99.90;;;;;;5072736;28;20227;-85
2023/01/17 05:30:43;;;;;;;5.18;4.78;;;2.00;99.90;;;;;;5070180;28;20213;-85
2023/01/17 05:33:10;;;;;;;9.18;6.35;;;2.00;99.90;;;;;;5069009;28;20260;-84
2023/01/17 05:35:38;;;;;;;5.40;4.60;;;2.10;99.90;;;;;;5073963;28;20263;-86
2023/01/17 05:38:06;;;;;;;4.45;4.05;;;2.10;99.90;;;;;;5055216;28;20234;-89
2023/01/17 05:40:37;;;;;;;5.85;3.90;;;2.10;99.90;;;;;;5063170;28;20362;-85
2023/01/17 05:43:07;;;;;;;5.43;4.32;;;2.10;99.90;;;;;;5045753;28;20221;-86
2023/01/17 05:45:35;;;;;;;5.75;5.25;;;2.10;99.90;;;;;;5054311;28;20231;-85
2023/01/17 05:48:06;;;;;;;5.35;4.85;;;2.10;99.90;;;;;;5064244;28;20209;-83
2023/01/17 05:50:36;;;;;;;4.95;4.03;;;2.10;99.90;;;;;;5058580;28;20209;-86
2023/01/17 05:53:08;;;;;;;4.53;3.95;;;2.20;99.90;;;;;;5056904;28;20245;-83
2023/01/17 05:55:37;;;;;;;4.45;3.97;;;2.30;99.90;;;;;;5047458;28;20231;-85
2023/01/17 05:58:07;;;;;;;3.67;3.38;;;2.20;99.90;;;;;;5064501;28;20205;-85
2023/01/17 06:00:37;;;;;;;3.13;2.70;;;2.30;99.90;;;;;;5045780;28;20201;-88
2023/01/17 06:03:10;;;;;;;3.20;2.88;;;2.40;99.90;;;;;;5061405;28;20576;-83
2023/01/17 06:05:37;;;;;;;4.13;2.75;;;2.30;99.90;;;;;;5070348;28;20220;-86
2023/01/17 06:08:06;;;;;;;3.58;3.25;;;2.40;99.90;;;;;;5046103;28;20280;-85
2023/01/17 06:10:35;;;;;;;3.80;2.70;;;2.40;99.90;;;;;;5063164;28;20213;-85
2023/01/17 06:13:09;;;;;;;4.28;3.60;;;2.50;99.90;;;;;;5062658;28;20655;-83
2023/01/17 06:15:38;;;;;;;2.72;2.53;;;2.70;99.90;;;;;;5049346;28;20239;-88
2023/01/17 06:18:11;;;;;;;2.67;2.42;;;2.70;99.90;;;;;;5048285;28;20268;-86
2023/01/17 06:20:39;;;;;;;4.10;2.75;;;2.70;99.90;;;;;;5054316;28;20217;-84
2023/01/17 06:23:13;;;;;;;3.35;3.05;;;2.70;99.90;;;;;;5061354;28;20644;-86
2023/01/17 06:25:43;;;;;;;5.90;3.42;;;2.70;99.90;;;;;;5058696;28;20220;-85
2023/01/17 06:28:13;;;;;;;3.40;2.95;;;2.80;99.90;;;;;;5044309;28;20197;-85
2023/01/17 06:30:42;;;;;;;3.90;2.55;;;2.80;99.90;;;;;;5048292;28;20212;-85
2023/01/17 06:33:11;;;;;;;3.03;2.83;;;2.80;99.90;;;;;;5041022;28;20205;-86
2023/01/17 06:35:49;;;;;;;6.63;4.13;;;2.80;99.90;;;;;;5060810;28;20288;-86
2023/01/17 06:38:17;;;;;;;2.70;2.40;;;2.90;99.90;;;;;;5046599;28;20393;-85
2023/01/17 06:40:49;;;;;;;3.65;2.58;;;2.90;99.90;;;;;;5060612;28;20268;-86
2023/01/17 06:43:16;;;;;;;3.80;2.97;;;2.80;99.90;;;;;;5042602;28;20241;-85
2023/01/17 06:45:44;;;;;;;4.80;3.35;;;2.90;99.90;;;;;;5062491;28;20197;-84
2023/01/17 06:48:12;;;;;;;5.20;2.85;;;2.80;99.90;;;;;;5041120;28;20210;-85
2023/01/17 06:50:41;;;;;;;4.53;2.90;;;2.70;99.90;;;;;;5062642;28;20237;-85
2023/01/17 06:53:14;;;;;;;3.83;3.00;;;2.80;99.90;;;;;;5062891;28;20206;-86
2023/01/17 06:55:42;;;;;;;4.95;2.70;;;2.80;99.90;;;;;;5060291;28;20228;-85
2023/01/17 06:58:14;;;;;;;2.53;2.33;;;3.00;99.90;;;;;;5044707;28;20200;-87
2023/01/17 07:00:42;;;;;;;3.60;3.25;;;3.10;99.90;;;;;;5078164;28;20215;-87
2023/01/17 07:03:24;;;;;;;2.70;2.20;;;3.20;99.90;;;;;;5074958;28;20198;-87
2023/01/17 07:05:51;;;;;;;2.30;2.10;;;3.30;99.90;;;;;;5069533;28;20232;-85
2023/01/17 07:08:20;;;;;;;3.33;2.40;;;3.30;99.90;;;;;;5054503;28;20234;-87
2023/01/17 07:10:49;;;;;;;2.55;2.35;;;3.40;99.90;;;;;;5049377;28;20213;-87
2023/01/17 07:13:16;;;;;;;3.20;2.40;;;3.50;99.90;;;;;;5056474;28;20456;-85
2023/01/17 07:15:44;;;;;;;3.30;2.35;;;3.60;99.90;;;;;;5047411;28;20237;-87
2023/01/17 07:18:15;;;;;;;4.25;2.00;;;3.60;99.90;;;;;;5071156;28;20205;-86
2023/01/17 07:20:42;;;;;;;2.05;1.88;;;3.60;99.90;;;;;;5028209;28;20210;-85
2023/01/17 07:23:10;;;;;;;2.35;2.05;;;3.50;99.90;;;;;;5067767;28;20225;-86
2023/01/17 07:25:37;;;;;;;3.17;2.78;;;3.60;99.90;;;;;;5060826;28;20206;-86
2023/01/17 07:28:06;;;;;;;5.65;3.03;;;3.60;99.90;;;;;;5059945;28;20200;-87
2023/01/17 07:30:35;;;;;;;5.78;3.58;;;3.60;99.90;;;;;;5049351;28;20438;-84
2023/01/17 07:33:04;;;;;;;3.30;2.50;;;3.60;99.90;;;;;;5062433;28;20233;-87
2023/01/17 07:35:31;;;;;;;3.80;3.00;;;3.50;99.90;;;;;;5058907;28;20269;-85
2023/01/17 07:37:59;;;;;;;2.95;2.00;;;3.50;99.90;;;;;;5059291;28;20198;-85
2023/01/17 07:40:28;;;;;;;2.75;2.40;;;3.40;99.90;;;;;;5042995;28;20259;-84
2023/01/17 07:43:02;;;;;;;2.35;2.15;;;3.60;99.90;;;;;;5059691;28;20206;-85
2023/01/17 07:45:29;;;;;;;3.83;1.95;;;3.70;99.90;;;;;;5065997;28;20796;-88
2023/01/17 07:47:56;;;;;;;5.03;2.00;;;3.70;99.90;;;;;;5053246;28;20252;-87
2023/01/17 07:50:23;;;;;;;3.03;2.72;;;3.90;99.90;;;;;;5063734;28;20293;-86
2023/01/17 07:52:51;;;;;;;2.30;2.10;;;3.80;99.90;;;;;;5042373;28;20282;-85
2023/01/17 07:55:19;;;;;;;2.60;2.40;;;4.00;99.90;;;;;;5059796;28;20207;-85
2023/01/17 07:57:49;;;;;;;3.95;1.80;;;4.00;99.90;;;;;;5046354;28;20213;-83
2023/01/17 08:00:17;;;;;;;3.78;2.53;;;4.20;99.90;;;;;;5058822;28;20207;-87
2023/01/17 08:02:44;;;;;;;21.95;7.78;;;4.10;99.90;;;;;;5044045;28;20240;-84
2023/01/17 08:05:11;;;;;;;4.50;1.95;;;4.30;99.90;;;;;;5045986;28;20606;-85
2023/01/17 08:07:39;;;;;;;6.68;3.10;;;4.50;99.90;;;;;;5038425;28;20274;-85
2023/01/17 08:10:11;;;;;;;2.80;2.08;;;4.60;99.90;;;;;;5060450;28;20211;-86
2023/01/17 08:12:38;;;;;;;2.25;2.05;;;4.80;99.90;;;;;;5059413;28;20207;-85
2023/01/17 08:15:07;;;;;;;3.72;2.33;;;4.80;99.90;;;;;;5059407;28;20241;-85
2023/01/17 08:17:35;;;;;;;2.78;2.40;;;4.90;99.90;;;;;;5056700;28;20285;-84
2023/01/17 08:20:05;;;;;;;2.00;1.70;;;4.90;99.90;;;;;;5066423;28;20195;-83
2023/01/17 08:22:34;;;;;;;4.82;3.65;;;4.80;99.90;;;;;;5060500;28;20258;-86
2023/01/17 08:25:07;;;;;;;4.05;1.90;;;4.90;99.90;;;;;;5042733;28;20212;-84
2023/01/17 08:27:37;;;;;;;4.93;2.17;;;4.90;99.90;;;;;;5044251;28;20195;-85
2023/01/17 08:30:06;;;;;;;3.28;2.42;;;4.90;99.90;;;;;;5057317;28;20207;-87
2023/01/17 08:32:39;;;;;;;2.85;2.05;;;5.00;99.90;;;;;;5059976;28;20199;-86
2023/01/17 08:35:08;;;;;;;5.80;2.28;;;5.10;99.90;;;;;;5046841;28;20191;-85
2023/01/17 08:37:36;;;;;;;5.25;2.33;;;5.10;99.90;;;;;;5069157;28;20227;-84
2023/01/17 08:40:07;;;;;;;3.53;2.03;;;5.10;99.90;;;;;;5046014;28;20203;-86
2023/01/17 08:42:39;;;;;;;2.15;1.65;;;5.20;99.90;;;;;;5068242;28;20322;-85
2023/01/17 08:45:08;;;;;;;5.72;2.88;;;5.30;99.90;;;;;;5066944;28;20225;-85
2023/01/17 08:47:35;;;;;;;5.28;2.50;;;5.30;99.90;;;;;;5058930;28;20429;-88
2023/01/17 08:50:05;;;;;;;2.90;2.45;;;5.40;99.90;;;;;;5059432;28;20191;-84
2023/01/17 08:52:35;;;;;;;3.22;2.63;;;5.50;99.90;;;;;;5055612;28;20192;-87
2023/01/17 08:55:04;;;;;;;6.57;2.75;;;5.60;99.90;;;;;;5058363;28;20465;-86
2023/01/17 08:57:31;;;;;;;4.03;2.97;;;5.60;99.90;;;;;;5050498;28;20232;-85
2023/01/17 08:59:59;;;;;;;4.43;2.90;;;5.60;99.90;;;;;;5064383;28;20546;-84
2023/01/17 09:02:27;;;;;;;6.00;3.67;;;5.70;99.90;;;;;;5051933;28;20203;-84
2023/01/17 09:04:54;;;;;;;4.88;3.22;;;5.90;99.90;;;;;;5048649;28;20249;-84
2023/01/17 09:07:23;;;;;;;3.38;2.25;;;6.20;99.90;;;;;;5063729;28;20275;-84
2023/01/17 09:09:52;;;;;;;8.98;3.15;;;6.30;99.90;;;;;;5065631;28;20208;-84
2023/01/17 09:12:21;;;;;;;4.00;1.95;;;6.40;99.90;;;;;;5062488;28;20238;-87
2023/01/17 09:14:48;;;;;;;3.53;2.55;;;6.30;99.90;;;;;;5037397;28;20195;-86
2023/01/17 09:17:17;;;;;;;6.32;3.60;;;6.50;99.90;;;;;;5045731;28;20535;-85
2023/01/17 09:19:44;;;;;;;3.42;2.63;;;6.60;99.90;;;;;;5064738;28;20262;-84
2023/01/17 09:22:13;;;;;;;5.70;3.53;;;6.70;99.90;;;;;;5041541;28;20615;-85
2023/01/17 09:24:41;;;;;;;3.13;2.30;;;6.70;99.90;;;;;;5060733;28;20242;-84
2023/01/17 09:27:08;;;;;;;3.45;2.20;;;6.70;99.90;;;;;;5045145;28;20211;-83
2023/01/17 09:29:36;;;;;;;3.78;2.38;;;6.80;99.90;;;;;;5059974;28;20246;-85
2023/01/17 09:32:03;;;;;;;2.47;1.80;;;6.90;99.90;;;;;;5042570;28;20215;-83
2023/01/17 09:34:31;;;;;;;2.45;1.88;;;6.90;99.90;;;;;;5026981;28;20203;-82
2023/01/17 09:36:58;;;;;;;2.85;1.83;;;6.90;99.90;;;;;;5027729;28;20236;-84
2023/01/17 09:39:25;;;;;;;2.63;1.70;;;7.10;99.90;;;;;;5061366;28;20253;-84
2023/01/17 09:42:07;;;;;;;3.97;1.70;;;7.20;99.90;;;;;;5062970;28;20504;-84
2023/01/17 09:44:47;;;;;;;1.40;1.30;;;7.30;99.90;;;;;;5065216;28;20243;-83
2023/01/17 09:47:42;;;;;;;2.85;1.55;;;7.50;99.90;;;;;;5047332;28;20232;-82
2023/01/17 09:50:41;;;;;;;2.85;1.33;;;7.60;99.90;;;;;;5058031;28;20208;-85
2023/01/17 09:53:14;;;;;;;2.05;1.80;;;7.80;99.90;;;;;;5023974;28;20200;-84
2023/01/17 09:56:10;;;;;;;3.03;2.00;;;7.60;99.90;;;;;;5062807;28;20211;-84
2023/01/17 09:58:53;;;;;;;3.28;1.27;;;7.50;99.90;;;;;;5061652;28;20419;-84
2023/01/17 10:01:43;;;;;;;0.95;0.85;;;7.40;99.90;;;;;;5063973;28;20205;-83
2023/01/17 10:05:04;;;;;;;2.35;1.38;;;7.10;99.90;;;;;;5043743;28;20287;-85
2023/01/17 10:08:08;;;;;;;1.40;1.08;;;7.10;99.90;;;;;;5028250;28;20551;-87
2023/01/17 10:10:53;;;;;;;2.47;1.88;;;6.90;99.90;;;;;;5022079;28;20211;-85
2023/01/17 10:13:48;;;;;;;1.85;1.10;;;6.70;99.90;;;;;;5061204;28;20234;-84
2023/01/17 10:16:23;;;;;;;1.90;1.27;;;6.60;99.90;;;;;;5044308;28;20227;-85
2023/01/17 10:19:22;;;;;;;1.42;1.30;;;6.40;99.90;;;;;;5061821;28;20211;-87
2023/01/17 10:22:22;;;;;;;2.75;1.20;;;6.40;99.90;;;;;;5061326;28;20207;-85
2023/01/17 10:24:55;;;;;;;5.00;1.30;;;6.20;99.90;;;;;;5054572;28;20210;-87
2023/01/17 10:27:33;;;;;;;2.15;1.52;;;6.30;99.90;;;;;;5045854;28;20208;-86
2023/01/17 10:30:03;;;;;;;4.95;1.65;;;6.20;99.90;;;;;;5043916;28;20211;-87
2023/01/17 10:32:33;;;;;;;1.55;1.30;;;6.20;99.90;;;;;;5042589;28;20235;-87
2023/01/17 10:35:09;;;;;;;2.40;1.10;;;6.30;99.90;;;;;;5044787;28;20721;-84
2023/01/17 10:37:42;;;;;;;6.38;1.45;;;6.70;99.90;;;;;;5053506;28;20219;-85
2023/01/17 10:40:33;;;;;;;3.38;1.27;;;7.00;99.90;;;;;;5049640;28;20219;-89
2023/01/17 10:43:08;;;;;;;6.32;1.63;;;7.20;99.90;;;;;;5053696;28;20257;-87
2023/01/17 10:45:46;;;;;;;2.05;1.85;;;7.20;99.90;;;;;;5051645;28;20206;-86
2023/01/17 10:48:31;;;;;;;3.33;2.20;;;7.00;99.90;;;;;;5058188;28;20203;-86
2023/01/17 10:51:15;;;;;;;2.78;1.35;;;7.10;99.90;;;;;;5059053;28;20211;-84
2023/01/17 10:54:15;;;;;;;2.50;1.20;;;7.00;99.90;;;;;;5062061;28;20204;-83
2023/01/17 10:56:42;;;;;;;2.75;1.80;;;6.90;99.90;;;;;;5060101;28;20875;-84
2023/01/17 10:59:36;;;;;;;2.67;2.40;;;6.80;99.90;;;;;;5042947;28;20215;-88
2023/01/17 11:02:26;;;;;;;4.50;1.73;;;6.80;99.90;;;;;;5043175;28;20212;-84
2023/01/17 11:04:54;;;;;;;5.25;1.75;;;6.70;99.90;;;;;;5061487;28;20270;-84
2023/01/17 11:07:26;;;;;;;3.58;2.13;;;6.60;99.90;;;;;;5042239;28;20211;-85
2023/01/17 11:09:57;;;;;;;1.88;1.35;;;6.70;99.90;;;;;;5040221;28;20201;-84
2023/01/17 11:12:33;;;;;;;4.85;1.88;;;6.70;99.90;;;;;;5061188;28;20250;-84
2023/01/17 11:15:24;;;;;;;1.80;1.45;;;6.70;99.90;;;;;;5058563;28;20280;-86
2023/01/17 11:18:01;;;;;;;2.10;1.50;;;6.70;99.90;;;;;;5059986;28;20222;-88
2023/01/17 11:20:33;;;;;;;1.50;1.20;;;6.60;99.90;;;;;;5043097;28;20251;-89
2023/01/17 11:23:11;;;;;;;1.60;1.50;;;6.50;99.90;;;;;;5060987;28;20207;-86
2023/01/17 11:25:40;;;;;;;2.95;1.55;;;6.50;99.90;;;;;;5059970;28;20199;-86
2023/01/17 11:28:29;;;;;;;3.22;2.40;;;6.40;99.90;;;;;;5041838;28;20243;-86
2023/01/17 11:30:57;;;;;;;2.75;1.75;;;6.40;99.90;;;;;;5047239;28;20210;-85
2023/01/17 11:33:46;;;;;;;2.40;1.23;;;6.40;99.90;;;;;;5041826;28;20583;-86
2023/01/17 11:36:33;;;;;;;3.67;1.58;;;6.60;99.90;;;;;;5054496;28;20220;-86
2023/01/17 11:39:04;;;;;;;5.97;1.58;;;6.60;99.90;;;;;;5049750;28;20207;-89
2023/01/17 11:41:37;;;;;;;4.93;1.83;;;6.70;99.90;;;;;;5047275;28;20196;-86
2023/01/17 11:44:21;;;;;;;7.07;2.00;;;6.70;99.90;;;;;;5064579;28;20194;-86
2023/01/17 11:47:12;;;;;;;2.88;1.50;;;6.80;99.90;;;;;;5064701;28;20214;-88
2023/01/17 11:49:47;;;;;;;3.65;1.58;;;6.80;99.90;;;;;;5062152;28;20195;-86
2023/01/17 11:52:32;;;;;;;4.18;2.10;;;6.80;99.90;;;;;;5059198;28;20213;-84
2023/01/17 11:55:00;;;;;;;4.68;1.95;;;6.70;99.90;;;;;;5039978;28;20243;-86
2023/01/17 11:57:30;;;;;;;2.97;1.60;;;6.80;99.90;;;;;;5050761;28;20291;-89
2023/01/17 12:00:31;;;;;;;2.67;1.73;;;6.70;99.90;;;;;;5058713;28;20207;-83
2023/01/17 12:03:37;;;;;;;5.40;2.40;;;6.60;99.90;;;;;;5054034;28;20503;-83
2023/01/17 12:06:39;;;;;;;3.78;3.25;;;6.70;99.90;;;;;;5038257;28;20217;-86
2023/01/17 12:09:45;;;;;;;1.65;1.52;;;6.80;99.90;;;;;;5034077;28;20199;-86
2023/01/17 12:15:27;;;;;;;1.85;1.42;;;6.90;99.90;;;;;;5057444;28;20274;-86
2023/01/17 12:18:15;;;;;;;7.88;1.85;;;6.60;99.90;;;;;;5021041;28;20258;-88
2023/01/17 12:21:04;;;;;;;5.88;1.65;;;6.60;99.90;;;;;;5045769;28;20199;-85
2023/01/17 12:24:02;;;;;;;4.22;1.73;;;6.70;99.90;;;;;;5059508;28;20249;-86
2023/01/17 12:26:40;;;;;;;1.48;1.35;;;6.70;99.90;;;;;;5056553;28;20212;-83
2023/01/17 12:29:45;;;;;;;3.15;1.75;;;6.70;99.90;;;;;;5053737;28;20234;-85
2023/01/17 12:33:06;;;;;;;4.35;1.33;;;6.70;99.90;;;;;;5055744;28;20211;-86
2023/01/17 12:35:37;;;;;;;4.53;1.85;;;6.70;99.90;;;;;;5039607;28;20200;-84
2023/01/17 12:38:11;;;;;;;2.20;1.00;;;6.80;99.90;;;;;;5042908;28;20273;-88
2023/01/17 12:41:10;;;;;;;3.20;3.00;;;6.60;99.90;;;;;;5052898;28;20195;-84
2023/01/17 12:43:42;;;;;;;2.83;1.13;;;6.50;99.90;;;;;;5044775;28;20430;-89
2023/01/17 12:46:25;;;;;;;2.47;1.20;;;6.40;99.90;;;;;;5070596;28;20216;-87
2023/01/17 12:49:36;;;;;;;1.27;1.02;;;6.40;99.90;;;;;;5053280;28;20266;-84
2023/01/17 12:52:17;;;;;;;5.28;1.70;;;6.30;99.90;;;;;;5022488;28;20209;-84
2023/01/17 12:54:51;;;;;;;2.67;1.73;;;6.30;99.90;;;;;;5044365;28;20253;-84
2023/01/17 12:57:25;;;;;;;1.30;1.20;;;6.30;99.90;;;;;;5059338;28;20222;-86
2023/01/17 13:00:04;;;;;;;1.42;1.20;;;6.40;99.90;;;;;;5042536;28;20328;-85
2023/01/17 13:03:01;;;;;;;6.95;1.48;;;6.60;99.90;;;;;;5041154;28;20249;-87
2023/01/17 13:05:37;;;;;;;2.97;1.45;;;6.80;99.90;;;;;;5056284;28;20207;-85
2023/01/17 13:08:23;;;;;;;6.80;1.55;;;6.80;99.90;;;;;;5057241;28;20226;-84
2023/01/17 13:10:59;;;;;;;2.45;1.25;;;7.00;99.90;;;;;;5047989;28;20243;-85
2023/01/17 13:13:29;;;;;;;2.08;1.20;;;6.90;99.90;;;;;;5040577;28;20271;-85
2023/01/17 13:16:11;;;;;;;3.40;2.28;;;6.90;99.90;;;;;;5058954;28;20210;-85
2023/01/17 13:18:47;;;;;;;3.95;1.15;;;6.90;99.90;;;;;;5041522;28;20664;-83
2023/01/17 13:21:33;;;;;;;1.95;1.15;;;6.80;99.90;;;;;;5058841;28;20415;-85
2023/01/17 13:24:14;;;;;;;4.65;1.45;;;6.80;99.90;;;;;;5043996;28;20238;-85
2023/01/17 13:27:08;;;;;;;3.40;1.60;;;6.90;99.90;;;;;;5046263;28;20208;-86
2023/01/17 13:29:53;;;;;;;2.17;1.83;;;6.90;99.90;;;;;;5071351;28;20197;-84
2023/01/17 13:32:50;;;;;;;1.75;1.40;;;6.80;99.90;;;;;;5072243;28;20290;-87
2023/01/17 13:35:40;;;;;;;1.50;1.15;;;6.80;99.90;;;;;;5062648;28;20488;-85
2023/01/17 13:38:39;;;;;;;3.38;1.50;;;6.70;99.90;;;;;;5044799;28;20431;-87
2023/01/17 13:41:30;;;;;;;1.95;1.38;;;6.60;99.90;;;;;;5060132;28;20192;-85
2023/01/17 13:47:06;;;;;;;3.97;1.75;;;6.50;99.90;;;;;;5061842;28;20515;-82
2023/01/17 13:49:47;;;;;;;5.18;1.90;;;6.50;99.90;;;;;;5044210;28;20231;-83
2023/01/17 13:52:18;;;;;;;7.82;2.30;;;6.50;99.90;;;;;;5061205;28;20202;-85
2023/01/17 13:54:54;;;;;;;2.80;1.50;;;6.50;99.90;;;;;;5043837;28;20208;-84
2023/01/17 13:57:22;;;;;;;4.00;2.70;;;6.60;99.90;;;;;;5060364;28;20228;-82
2023/01/17 13:59:56;;;;;;;5.47;2.63;;;6.70;99.90;;;;;;5060879;28;20257;-85
2023/01/17 14:02:33;;;;;;;6.35;2.10;;;6.70;99.90;;;;;;5060925;28;20278;-84
2023/01/17 14:05:12;;;;;;;3.22;2.70;;;6.60;99.90;;;;;;5061124;28;20203;-85
2023/01/17 14:08:13;;;;;;;2.88;1.88;;;6.20;99.90;;;;;;5060874;28;20234;-84
2023/01/17 14:10:41;;;;;;;2.65;1.63;;;6.00;99.90;;;;;;5060581;28;20268;-86
2023/01/17 14:13:27;;;;;;;3.63;1.70;;;5.80;99.90;;;;;;5043767;28;20392;-87
2023/01/17 14:15:54;;;;;;;4.78;2.45;;;5.90;99.90;;;;;;5054825;28;20659;-84
2023/01/17 14:18:32;;;;;;;2.83;2.00;;;5.80;99.90;;;;;;5060278;28;20234;-85
2023/01/17 14:21:25;;;;;;;2.97;2.10;;;5.90;99.90;;;;;;5057593;28;20207;-84
2023/01/17 14:24:05;;;;;;;3.83;2.42;;;5.80;99.90;;;;;;5042993;28;20203;-83
2023/01/17 14:26:36;;;;;;;4.57;2.47;;;5.70;99.90;;;;;;5056886;28;20250;-84
2023/01/17 14:29:40;;;;;;;3.20;1.95;;;5.50;99.90;;;;;;5059986;28;20200;-84
2023/01/17 14:32:14;;;;;;;6.28;2.08;;;5.40;99.90;;;;;;5041888;28;20203;-86
2023/01/17 14:34:48;;;;;;;4.45;2.67;;;5.20;99.90;;;;;;5055804;28;20253;-84
2023/01/17 14:37:30;;;;;;;7.97;3.13;;;5.20;99.90;;;;;;5059944;28;20231;-86
2023/01/17 14:39:59;;;;;;;3.70;2.00;;;5.20;99.90;;;;;;5061646;28;20203;-83
2023/01/17 14:42:33;;;;;;;2.88;2.05;;;5.20;99.90;;;;;;5061735;28;20476;-87
2023/01/17 14:45:06;;;;;;;2.35;2.15;;;5.20;99.90;;;;;;5043803;28;20355;-84
2023/01/17 14:47:38;;;;;;;3.75;2.30;;;5.10;99.90;;;;;;5059643;28;20231;-84
2023/01/17 14:50:21;;;;;;;8.60;2.75;;;5.00;99.90;;;;;;5059513;28;20419;-84
2023/01/17 14:53:11;;;;;;;5.32;2.45;;;5.10;99.90;;;;;;5058613;28;20196;-84
2023/01/17 14:55:55;;;;;;;7.47;4.32;;;5.00;99.90;;;;;;5053678;28;20218;-84
2023/01/17 14:58:26;;;;;;;13.77;4.25;;;4.90;99.90;;;;;;5042160;28;20246;-86
2023/01/17 15:01:12;;;;;;;5.82;2.55;;;4.70;99.90;;;;;;5060651;28;20213;-84
2023/01/17 15:03:55;;;;;;;7.30;3.58;;;4.60;99.90;;;;;;5058586;28;20241;-83